createdAt,value
2022-10-01T00:00:14.952Z,38.60
2022-10-01T00:05:38.130Z,44.60
2022-10-01T00:10:43.541Z,38.00
2022-10-01T00:15:47.690Z,42.20
2022-10-01T00:20:50.990Z,40.10
2022-10-01T00:25:54.224Z,39.60
2022-10-01T00:30:57.844Z,38.90
2022-10-01T00:36:01.257Z,38.20
2022-10-01T00:41:05.400Z,46.30
2022-10-01T00:46:21.393Z,42.20
2022-10-01T00:51:28.898Z,39.70
2022-10-01T00:56:33.236Z,37.10
2022-10-01T01:01:38.495Z,41.30
2022-10-01T01:06:56.126Z,40.40
2022-10-01T01:12:05.155Z,40.50
2022-10-01T01:17:18.139Z,36.70
2022-10-01T01:22:26.576Z,36.00
2022-10-01T01:27:38.699Z,41.50
2022-10-01T01:33:04.912Z,42.70
2022-10-01T01:38:14.800Z,42.70
2022-10-01T01:43:24.461Z,40.40
2022-10-01T01:48:29.578Z,43.30
2022-10-01T01:53:32.857Z,35.50
2022-10-01T01:58:38.229Z,42.10
2022-10-01T02:03:42.058Z,39.90
2022-10-01T02:08:54.739Z,40.90
2022-10-01T02:14:43.305Z,40.40
2022-10-01T02:20:00.723Z,40.70
2022-10-01T02:25:06.509Z,41.10
2022-10-01T02:30:11.981Z,43.10
2022-10-01T02:35:19.311Z,45.40
2022-10-01T02:40:26.543Z,38.10
2022-10-01T02:45:33.697Z,37.50
2022-10-01T02:50:51.555Z,36.90
2022-10-01T02:55:58.683Z,35.10
2022-10-01T03:01:02.576Z,33.00
2022-10-01T03:06:06.279Z,34.80
2022-10-01T03:11:09.561Z,40.60
2022-10-01T03:16:13.042Z,47.70
2022-10-01T03:21:16.197Z,54.50
2022-10-01T03:26:19.367Z,48.90
2022-10-01T03:31:22.629Z,42.00
2022-10-01T03:36:25.903Z,48.50
2022-10-01T03:41:29.011Z,51.30
2022-10-01T03:46:32.331Z,53.40
2022-10-01T03:51:37.743Z,61.10
2022-10-01T03:56:42.892Z,60.20
2022-10-01T04:01:46.359Z,62.50
2022-10-01T04:06:49.688Z,68.40
2022-10-01T04:11:53.045Z,58.00
2022-10-01T04:16:56.318Z,61.40
2022-10-01T04:21:59.779Z,56.50
2022-10-01T04:27:02.983Z,61.60
2022-10-01T04:32:06.246Z,62.30
2022-10-01T04:37:09.798Z,66.40
2022-10-01T04:42:13.661Z,70.30
2022-10-01T04:47:16.836Z,73.00
2022-10-01T04:52:20.018Z,71.90
2022-10-01T04:57:23.200Z,74.50
2022-10-01T05:02:26.362Z,73.20
2022-10-01T05:07:32.472Z,73.10
2022-10-01T05:12:35.695Z,80.60
2022-10-01T05:17:39.091Z,85.90
2022-10-01T05:22:42.250Z,87.30
2022-10-01T05:27:46.195Z,79.30
2022-10-01T05:33:00.316Z,92.80
2022-10-01T05:38:04.140Z,77.50
2022-10-01T05:43:07.284Z,51.80
2022-10-01T05:48:10.903Z,35.90
2022-10-01T05:53:16.335Z,26.90
2022-10-01T05:58:19.502Z,28.60
2022-10-01T06:03:22.912Z,26.30
2022-10-01T06:08:26.911Z,29.10
2022-10-01T06:13:30.781Z,28.00
2022-10-01T06:18:33.960Z,24.20
2022-10-01T06:23:37.160Z,25.30
2022-10-01T06:28:40.382Z,19.90
2022-10-01T06:33:46.144Z,27.70
2022-10-01T06:38:49.859Z,21.50
2022-10-01T06:43:53.059Z,19.00
2022-10-01T06:48:56.135Z,19.40
2022-10-01T06:53:59.268Z,19.00
2022-10-01T06:59:03.905Z,18.10
2022-10-01T07:04:07.455Z,16.80
2022-10-01T07:09:10.641Z,18.80
2022-10-01T07:14:13.959Z,14.60
2022-10-01T07:19:17.095Z,13.40
2022-10-01T07:24:20.457Z,13.00
2022-10-01T07:29:27.535Z,14.70
2022-10-01T07:34:33.381Z,13.80
2022-10-01T07:39:37.087Z,12.60
2022-10-01T07:44:40.242Z,16.60
2022-10-01T07:49:43.412Z,13.30
2022-10-01T07:54:48.308Z,14.60
2022-10-01T07:59:55.666Z,12.60
2022-10-01T08:05:17.986Z,9.60
2022-10-01T08:10:23.489Z,11.00
2022-10-01T08:15:27.340Z,12.00
2022-10-01T08:20:31.713Z,11.70
2022-10-01T08:25:35.289Z,11.40
2022-10-01T08:30:40.417Z,9.60
2022-10-01T08:35:46.617Z,11.20
2022-10-01T08:40:51.877Z,11.70
2022-10-01T08:46:00.817Z,9.90
2022-10-01T08:51:06.373Z,7.70
2022-10-01T08:56:23.599Z,9.40
2022-10-01T09:01:27.494Z,10.70
2022-10-01T09:06:30.648Z,10.30
2022-10-01T09:11:56.118Z,9.50
2022-10-01T09:17:21.454Z,9.00
2022-10-01T09:22:26.349Z,8.90
2022-10-01T09:27:29.828Z,9.10
2022-10-01T09:32:45.631Z,9.20
2022-10-01T09:38:16.019Z,9.40
2022-10-01T09:43:22.262Z,10.90
2022-10-01T09:48:48.013Z,7.90
2022-10-01T09:54:13.435Z,13.00
2022-10-01T09:59:27.377Z,11.40
2022-10-01T10:04:33.574Z,8.90
2022-10-01T10:09:37.604Z,8.00
2022-10-01T10:14:41.520Z,9.50
2022-10-01T10:19:52.363Z,8.50
2022-10-01T10:25:05.564Z,9.10
2022-10-01T10:30:17.903Z,9.60
2022-10-01T10:35:26.459Z,8.60
2022-10-01T10:40:43.657Z,8.80
2022-10-01T10:45:48.974Z,9.90
2022-10-01T10:51:00.772Z,10.80
2022-10-01T10:56:06.778Z,8.50
2022-10-01T11:01:16.565Z,10.60
2022-10-01T11:06:20.709Z,9.50
2022-10-01T11:11:43.022Z,9.90
2022-10-01T11:16:58.358Z,10.30
2022-10-01T11:22:29.695Z,9.90
2022-10-01T11:27:39.845Z,9.90
2022-10-01T11:32:51.937Z,9.80
2022-10-01T11:38:00.126Z,8.80
2022-10-01T11:43:19.017Z,10.00
2022-10-01T11:48:51.429Z,9.70
2022-10-01T11:54:10.789Z,9.90
2022-10-01T11:59:52.078Z,10.30
2022-10-01T12:05:17.879Z,9.00
2022-10-01T12:10:55.252Z,9.40
2022-10-01T12:16:21.381Z,9.00
2022-10-01T12:21:37.137Z,10.40
2022-10-01T12:27:01.746Z,12.40
2022-10-01T12:32:08.125Z,12.10
2022-10-01T12:37:30.067Z,10.80
2022-10-01T12:42:53.892Z,10.30
2022-10-01T12:48:09.635Z,10.60
2022-10-01T12:53:31.262Z,12.50
2022-10-01T12:58:44.485Z,12.20
2022-10-01T13:04:03.203Z,11.10
2022-10-01T13:09:06.972Z,12.10
2022-10-01T13:14:18.343Z,12.00
2022-10-01T13:19:52.522Z,11.40
2022-10-01T13:25:41.005Z,12.00
2022-10-01T13:30:52.853Z,11.30
2022-10-01T13:36:01.289Z,10.40
2022-10-01T13:41:08.111Z,10.20
2022-10-01T13:46:12.724Z,8.10
2022-10-01T13:51:16.555Z,8.70
2022-10-01T13:56:37.243Z,8.60
2022-10-01T14:01:43.497Z,10.50
2022-10-01T14:07:22.468Z,9.10
2022-10-01T14:12:50.752Z,9.50
2022-10-01T14:17:56.364Z,8.90
2022-10-01T14:23:13.344Z,9.70
2022-10-01T14:28:40.311Z,11.00
2022-10-01T14:33:49.444Z,11.10
2022-10-01T14:39:15.024Z,11.30
2022-10-01T14:44:23.241Z,9.60
2022-10-01T14:49:32.629Z,9.20
2022-10-01T14:55:07.362Z,10.10
2022-10-01T15:00:19.522Z,8.80
2022-10-01T15:05:34.394Z,9.90
2022-10-01T15:10:51.948Z,9.40
2022-10-01T15:15:56.495Z,12.30
2022-10-01T15:21:06.131Z,12.20
2022-10-01T15:26:14.023Z,12.70
2022-10-01T15:31:17.518Z,11.80
2022-10-01T15:36:20.838Z,11.50
2022-10-01T15:41:33.042Z,12.80
2022-10-01T15:46:36.835Z,11.90
2022-10-01T15:52:07.055Z,10.60
2022-10-01T15:57:20.634Z,12.00
2022-10-01T16:02:30.777Z,11.20
2022-10-01T16:07:35.575Z,14.00
2022-10-01T16:12:39.313Z,15.20
2022-10-01T16:17:55.125Z,11.80
2022-10-01T16:23:36.117Z,17.50
2022-10-01T16:28:39.403Z,16.90
2022-10-01T16:33:42.489Z,16.70
2022-10-01T16:38:46.368Z,13.00
2022-10-01T16:43:52.092Z,15.80
2022-10-01T16:48:55.484Z,13.80
2022-10-01T16:54:00.347Z,14.90
2022-10-01T16:59:03.783Z,15.40
2022-10-01T17:04:11.910Z,14.60
2022-10-01T17:09:15.078Z,19.80
2022-10-01T17:14:22.037Z,14.60
2022-10-01T17:19:27.039Z,14.40
2022-10-01T17:24:30.214Z,13.00
2022-10-01T17:29:33.820Z,14.80
2022-10-01T17:34:37.635Z,16.10
2022-10-01T17:39:43.289Z,15.60
2022-10-01T17:44:46.609Z,14.40
2022-10-01T17:49:49.677Z,15.80
2022-10-01T17:54:52.824Z,15.40
2022-10-01T17:59:55.974Z,13.30
2022-10-01T18:04:59.275Z,13.70
2022-10-01T18:10:02.396Z,16.60
2022-10-01T18:15:06.238Z,15.70
2022-10-01T18:20:09.751Z,13.90
2022-10-01T18:25:16.261Z,14.20
2022-10-01T18:30:20.402Z,16.70
2022-10-01T18:35:33.883Z,15.80
2022-10-01T18:40:42.875Z,18.30
2022-10-01T18:46:06.895Z,17.70
2022-10-01T18:51:22.606Z,15.70
2022-10-01T18:56:31.917Z,17.60
2022-10-01T19:02:01.543Z,16.00
2022-10-01T19:07:20.142Z,19.20
2022-10-01T19:12:47.087Z,20.50
2022-10-01T19:18:05.131Z,17.60
2022-10-01T19:23:17.492Z,17.80
2022-10-01T19:28:46.028Z,18.80
2022-10-01T19:33:57.116Z,19.20
2022-10-01T19:39:05.186Z,17.40
2022-10-01T19:44:27.594Z,18.10
2022-10-01T19:49:38.923Z,21.20
2022-10-01T19:54:47.687Z,16.20
2022-10-01T19:59:54.665Z,18.60
2022-10-01T20:05:16.686Z,19.70
2022-10-01T20:10:34.211Z,22.10
2022-10-01T20:15:55.468Z,19.20
2022-10-01T20:21:19.986Z,17.30
2022-10-01T20:26:40.434Z,20.30
2022-10-01T20:32:13.589Z,23.00
2022-10-01T20:37:37.788Z,21.40
2022-10-01T20:42:47.274Z,21.00
2022-10-01T20:48:06.061Z,23.00
2022-10-01T20:53:17.699Z,20.40
2022-10-01T20:58:24.222Z,23.00
2022-10-01T21:03:36.548Z,22.90
2022-10-01T21:08:57.591Z,23.70
2022-10-01T21:14:38.638Z,18.90
2022-10-01T21:20:13.445Z,17.60
2022-10-01T21:25:34.743Z,17.80
2022-10-01T21:30:44.809Z,16.80
2022-10-01T21:35:51.138Z,12.50
2022-10-01T21:40:58.611Z,10.80
2022-10-01T21:46:20.604Z,13.20
2022-10-01T21:52:02.873Z,11.20
2022-10-01T21:57:41.728Z,9.30
2022-10-01T22:02:58.201Z,8.70
2022-10-01T22:08:19.030Z,9.90
2022-10-01T22:13:27.583Z,13.30
2022-10-01T22:18:41.046Z,8.90
2022-10-01T22:23:58.382Z,10.00
2022-10-01T22:29:07.054Z,10.00
2022-10-01T22:34:15.177Z,10.00
2022-10-01T22:39:23.472Z,8.60
2022-10-01T22:44:28.946Z,7.40
2022-10-01T22:49:50.195Z,8.10
2022-10-01T22:55:37.179Z,8.50
2022-10-01T23:01:12.711Z,9.50
2022-10-01T23:06:28.991Z,8.80
2022-10-01T23:11:47.242Z,8.10
2022-10-01T23:17:22.932Z,10.90
2022-10-01T23:22:43.996Z,9.30
2022-10-01T23:28:08.058Z,9.70
2022-10-01T23:33:28.502Z,9.90
2022-10-01T23:38:31.555Z,8.10
2022-10-01T23:43:44.357Z,13.40
2022-10-01T23:49:12.952Z,11.60
2022-10-01T23:54:28.129Z,11.60
2022-10-01T23:59:41.766Z,14.60
